createdAt,value
2022-12-16T00:01:00.127Z,71.50
2022-12-16T00:03:26.699Z,63.67
2022-12-16T00:05:55.120Z,62.87
2022-12-16T00:08:21.529Z,65.77
2022-12-16T00:10:54.971Z,67.03
2022-12-16T00:13:21.568Z,68.13
2022-12-16T00:15:48.164Z,65.60
2022-12-16T00:18:20.009Z,65.43
2022-12-16T00:20:47.981Z,73.10
2022-12-16T00:23:14.818Z,65.50
2022-12-16T00:25:43.217Z,64.13
2022-12-16T00:28:10.586Z,64.30
2022-12-16T00:30:37.435Z,64.77
2022-12-16T00:33:04.668Z,63.13
2022-12-16T00:35:31.423Z,66.67
2022-12-16T00:37:58.057Z,61.47
2022-12-16T00:40:25.162Z,62.27
2022-12-16T00:42:52.166Z,66.07
2022-12-16T00:45:18.940Z,62.60
2022-12-16T00:47:45.483Z,60.53
2022-12-16T00:50:11.893Z,62.27
2022-12-16T00:52:38.367Z,58.07
2022-12-16T00:55:05.242Z,64.17
2022-12-16T00:57:33.311Z,60.70
2022-12-16T00:59:59.733Z,62.33
2022-12-16T01:02:26.530Z,65.10
2022-12-16T01:04:53.600Z,61.60
2022-12-16T01:07:21.192Z,68.00
2022-12-16T01:09:47.592Z,67.70
2022-12-16T01:12:14.013Z,59.17
2022-12-16T01:14:40.550Z,66.33
2022-12-16T01:17:07.003Z,63.23
2022-12-16T01:19:33.486Z,59.20
2022-12-16T01:21:59.924Z,61.30
2022-12-16T01:24:26.327Z,62.07
2022-12-16T01:26:52.784Z,66.20
2022-12-16T01:29:19.224Z,62.20
2022-12-16T01:31:45.746Z,65.33
2022-12-16T01:34:12.307Z,63.83
2022-12-16T01:36:38.698Z,73.40
2022-12-16T01:39:05.325Z,67.40
2022-12-16T01:41:31.776Z,62.03
2022-12-16T01:44:16.159Z,62.43
2022-12-16T01:46:49.169Z,62.00
2022-12-16T01:49:28.449Z,59.80
2022-12-16T01:52:00.993Z,66.80
2022-12-16T01:54:34.604Z,62.93
2022-12-16T01:57:05.889Z,63.67
2022-12-16T01:59:35.618Z,63.57
2022-12-16T02:02:04.268Z,63.53
2022-12-16T02:04:31.001Z,62.53
2022-12-16T02:06:58.739Z,68.40
2022-12-16T02:09:25.328Z,63.93
2022-12-16T02:12:00.636Z,67.87
2022-12-16T02:15:04.188Z,64.23
2022-12-16T02:17:53.362Z,66.83
2022-12-16T02:20:42.269Z,58.23
2022-12-16T02:23:27.424Z,61.33
2022-12-16T02:26:12.129Z,63.80
2022-12-16T02:28:59.118Z,61.03
2022-12-16T02:31:31.616Z,60.80
2022-12-16T02:34:20.831Z,58.43
2022-12-16T02:36:50.145Z,57.83
2022-12-16T02:39:25.311Z,60.30
2022-12-16T02:42:02.072Z,61.20
2022-12-16T02:44:47.225Z,63.60
2022-12-16T02:47:13.676Z,68.07
2022-12-16T02:49:45.556Z,55.03
2022-12-16T02:52:13.641Z,63.40
2022-12-16T02:54:40.703Z,58.17
2022-12-16T02:57:24.082Z,60.30
2022-12-16T03:00:07.318Z,57.33
2022-12-16T03:03:07.316Z,59.67
2022-12-16T03:05:42.844Z,58.87
2022-12-16T03:08:14.596Z,59.90
2022-12-16T03:10:50.408Z,59.20
2022-12-16T03:13:20.108Z,58.90
2022-12-16T03:15:49.792Z,60.60
2022-12-16T03:18:18.197Z,58.20
2022-12-16T03:20:55.794Z,55.23
2022-12-16T03:23:37.923Z,66.10
2022-12-16T03:26:16.116Z,61.97
2022-12-16T03:28:52.115Z,55.43
2022-12-16T03:31:24.595Z,55.23
2022-12-16T03:33:59.542Z,63.87
2022-12-16T03:36:28.743Z,57.50
2022-12-16T03:38:57.149Z,58.20
2022-12-16T03:41:24.429Z,61.77
2022-12-16T03:43:52.265Z,57.80
2022-12-16T03:46:18.836Z,54.80
2022-12-16T03:48:48.150Z,56.57
2022-12-16T03:51:15.907Z,58.30
2022-12-16T03:53:42.616Z,61.53
2022-12-16T03:56:09.231Z,56.60
2022-12-16T03:58:35.760Z,54.63
2022-12-16T04:01:02.233Z,58.23
2022-12-16T04:03:28.734Z,61.80
2022-12-16T04:05:55.162Z,51.87
2022-12-16T04:08:21.563Z,55.20
2022-12-16T04:11:10.130Z,58.27
2022-12-16T04:13:54.889Z,54.57
2022-12-16T04:16:40.117Z,56.40
2022-12-16T04:19:25.504Z,57.73
2022-12-16T04:22:10.390Z,53.80
2022-12-16T04:24:36.849Z,65.43
2022-12-16T04:27:21.885Z,56.53
2022-12-16T04:30:06.687Z,53.90
2022-12-16T04:32:53.088Z,58.57
2022-12-16T04:35:38.312Z,55.23
2022-12-16T04:38:23.752Z,52.77
2022-12-16T04:41:09.028Z,53.33
2022-12-16T04:43:54.306Z,56.20
2022-12-16T04:46:39.725Z,56.07
2022-12-16T04:49:24.538Z,55.00
2022-12-16T04:52:09.355Z,51.03
2022-12-16T04:54:54.040Z,52.93
2022-12-16T04:57:38.908Z,51.80
2022-12-16T05:00:24.757Z,55.07
2022-12-16T05:03:09.537Z,55.60
2022-12-16T05:05:55.001Z,58.37
2022-12-16T05:08:39.786Z,56.27
2022-12-16T05:11:25.021Z,58.70
2022-12-16T05:14:09.721Z,55.97
2022-12-16T05:16:54.426Z,54.70
2022-12-16T05:19:39.127Z,51.93
2022-12-16T05:22:23.949Z,57.10
2022-12-16T05:25:08.732Z,49.00
2022-12-16T05:27:53.643Z,53.97
2022-12-16T05:30:38.634Z,53.37
2022-12-16T05:33:23.430Z,53.73
2022-12-16T05:36:08.428Z,51.10
2022-12-16T05:38:53.163Z,55.53
2022-12-16T05:41:38.608Z,47.27
2022-12-16T05:44:23.957Z,49.77
2022-12-16T05:47:08.880Z,56.47
2022-12-16T05:49:53.823Z,57.63
2022-12-16T05:52:39.592Z,53.50
2022-12-16T05:55:27.902Z,50.17
2022-12-16T05:58:24.942Z,50.67
2022-12-16T06:01:10.262Z,55.47
2022-12-16T06:03:55.138Z,50.03
2022-12-16T06:06:40.791Z,54.63
2022-12-16T06:09:26.100Z,65.10
2022-12-16T06:12:10.954Z,66.03
2022-12-16T06:14:56.085Z,50.53
2022-12-16T06:17:40.809Z,59.30
2022-12-16T06:20:26.673Z,65.70
2022-12-16T06:23:12.898Z,56.77
2022-12-16T06:25:58.734Z,54.00
2022-12-16T06:28:46.019Z,62.47
2022-12-16T06:31:32.097Z,64.63
2022-12-16T06:34:17.206Z,64.43
2022-12-16T06:37:02.015Z,54.53
2022-12-16T06:39:52.586Z,50.60
2022-12-16T06:42:38.130Z,51.07
2022-12-16T06:45:23.440Z,54.07
2022-12-16T06:48:08.515Z,47.57
2022-12-16T06:50:55.638Z,46.63
2022-12-16T06:53:40.764Z,55.53
2022-12-16T06:56:26.141Z,53.17
2022-12-16T06:59:10.887Z,51.03
2022-12-16T07:01:55.724Z,49.30
2022-12-16T07:04:40.877Z,49.23
2022-12-16T07:07:25.641Z,60.67
2022-12-16T07:10:10.912Z,49.53
2022-12-16T07:12:55.738Z,54.47
2022-12-16T07:15:40.382Z,49.37
2022-12-16T07:18:25.128Z,50.93
2022-12-16T07:21:10.008Z,53.80
2022-12-16T07:23:54.853Z,62.67
2022-12-16T07:26:41.093Z,49.97
2022-12-16T07:29:25.899Z,49.20
2022-12-16T07:32:10.948Z,55.63
2022-12-16T07:34:56.105Z,52.30
2022-12-16T07:37:41.357Z,51.13
2022-12-16T07:40:27.208Z,54.70
2022-12-16T07:43:12.123Z,51.63
2022-12-16T07:45:57.247Z,54.60
2022-12-16T07:48:42.094Z,46.40
2022-12-16T07:51:26.825Z,52.20
2022-12-16T07:54:11.761Z,50.37
2022-12-16T07:56:56.531Z,51.50
2022-12-16T07:59:41.360Z,51.00
2022-12-16T08:02:29.079Z,47.00
2022-12-16T08:05:14.009Z,51.60
2022-12-16T08:08:01.002Z,48.13
2022-12-16T08:10:46.333Z,53.07
2022-12-16T08:13:31.610Z,52.53
2022-12-16T08:16:16.518Z,49.07
2022-12-16T08:19:04.868Z,50.90
2022-12-16T08:21:52.561Z,53.00
2022-12-16T08:24:37.448Z,61.23
2022-12-16T08:27:22.637Z,59.97
2022-12-16T08:30:07.427Z,68.43
2022-12-16T08:32:58.771Z,61.00
2022-12-16T08:35:45.600Z,49.40
2022-12-16T08:38:30.383Z,57.67
2022-12-16T08:41:15.134Z,62.30
2022-12-16T08:43:59.979Z,77.40
2022-12-16T08:46:45.024Z,79.70
2022-12-16T08:49:30.167Z,74.37
2022-12-16T08:52:15.020Z,61.40
2022-12-16T08:54:59.721Z,61.63
2022-12-16T08:57:45.034Z,58.90
2022-12-16T09:00:30.828Z,56.43
2022-12-16T09:03:17.333Z,54.97
2022-12-16T09:06:03.262Z,62.37
2022-12-16T09:08:49.060Z,58.47
2022-12-16T09:11:34.316Z,62.13
2022-12-16T09:14:19.069Z,63.70
2022-12-16T09:17:03.981Z,62.93
2022-12-16T09:19:48.962Z,72.60
2022-12-16T09:22:33.729Z,64.87
2022-12-16T09:25:18.499Z,62.67
2022-12-16T09:28:07.276Z,62.83
2022-12-16T09:30:52.202Z,66.40
2022-12-16T09:33:37.993Z,63.70
2022-12-16T09:36:23.337Z,62.50
2022-12-16T09:39:08.359Z,58.07
2022-12-16T09:42:10.690Z,64.70
2022-12-16T09:45:28.760Z,61.73
2022-12-16T09:48:25.136Z,59.87
2022-12-16T09:51:14.319Z,73.80
2022-12-16T09:54:02.263Z,64.87
2022-12-16T09:56:51.656Z,67.50
2022-12-16T09:59:46.134Z,63.80
2022-12-16T10:02:33.783Z,58.53
2022-12-16T10:05:20.822Z,63.87
2022-12-16T10:08:22.825Z,62.30
2022-12-16T10:11:10.855Z,79.10
2022-12-16T10:14:04.369Z,64.00
2022-12-16T10:17:01.605Z,64.60
2022-12-16T10:20:10.110Z,58.73
2022-12-16T10:23:07.768Z,60.93
2022-12-16T10:26:08.230Z,66.40
2022-12-16T10:29:06.489Z,70.93
2022-12-16T10:31:52.772Z,65.27
2022-12-16T10:34:44.866Z,64.77
2022-12-16T10:37:39.370Z,68.00
2022-12-16T10:40:26.110Z,65.57
2022-12-16T10:43:40.278Z,63.77
2022-12-16T10:46:34.724Z,71.63
2022-12-16T10:49:19.694Z,65.20
2022-12-16T10:52:15.298Z,59.37
2022-12-16T10:55:13.588Z,84.20
2022-12-16T10:58:17.763Z,64.43
2022-12-16T11:01:08.757Z,68.37
2022-12-16T11:03:56.748Z,70.93
2022-12-16T11:07:03.041Z,67.37
2022-12-16T11:09:52.417Z,67.50
2022-12-16T11:12:49.388Z,73.97
2022-12-16T11:15:42.386Z,61.37
2022-12-16T11:18:36.757Z,70.00
2022-12-16T11:21:27.585Z,63.30
2022-12-16T11:24:32.207Z,68.87
2022-12-16T11:27:22.573Z,68.63
2022-12-16T11:30:22.633Z,70.27
2022-12-16T11:33:12.449Z,68.93
2022-12-16T11:36:10.346Z,70.57
2022-12-16T11:39:01.699Z,66.47
2022-12-16T11:41:52.082Z,69.00
2022-12-16T11:45:00.535Z,73.63
2022-12-16T11:47:57.681Z,72.20
2022-12-16T11:50:45.908Z,71.97
2022-12-16T11:53:53.484Z,66.87
2022-12-16T11:56:44.240Z,68.90
2022-12-16T11:59:59.908Z,69.50
2022-12-16T12:03:08.916Z,75.93
2022-12-16T12:06:05.248Z,69.87
2022-12-16T12:08:53.293Z,72.90
2022-12-16T12:11:46.822Z,71.60
2022-12-16T12:14:53.457Z,76.40
2022-12-16T12:18:00.658Z,69.93
2022-12-16T12:20:50.144Z,66.53
2022-12-16T12:23:48.943Z,68.13
2022-12-16T12:26:41.696Z,75.37
2022-12-16T12:29:26.481Z,74.40
2022-12-16T12:32:20.408Z,84.80
2022-12-16T12:35:41.713Z,75.00
2022-12-16T12:38:42.238Z,76.77
2022-12-16T12:41:49.108Z,69.67
2022-12-16T12:44:51.822Z,74.97
2022-12-16T12:47:37.569Z,66.33
2022-12-16T12:50:35.641Z,71.70
2022-12-16T12:53:29.960Z,75.50
2022-12-16T12:56:30.702Z,75.53
2022-12-16T12:59:20.600Z,76.40
2022-12-16T13:02:06.047Z,71.10
2022-12-16T13:04:52.732Z,79.67
2022-12-16T13:07:37.972Z,75.03
2022-12-16T13:10:44.667Z,73.03
2022-12-16T13:13:36.133Z,79.97
2022-12-16T13:16:23.533Z,75.13
2022-12-16T13:19:47.511Z,83.37
2022-12-16T13:22:50.303Z,76.27
2022-12-16T13:26:10.395Z,75.37
2022-12-16T13:29:20.921Z,77.77
2022-12-16T13:32:20.342Z,81.53
2022-12-16T13:35:20.269Z,73.77
2022-12-16T13:38:38.905Z,69.77
2022-12-16T13:41:45.532Z,75.93
2022-12-16T13:44:31.786Z,71.57
2022-12-16T13:47:17.147Z,69.43
2022-12-16T13:50:09.302Z,65.53
2022-12-16T13:53:11.561Z,65.27
2022-12-16T13:56:03.492Z,64.17
2022-12-16T13:58:56.884Z,65.83
2022-12-16T14:02:03.339Z,71.67
2022-12-16T14:04:52.963Z,61.03
2022-12-16T14:07:41.694Z,69.67
2022-12-16T14:10:46.657Z,73.53
2022-12-16T14:14:00.381Z,93.47
2022-12-16T14:17:10.024Z,85.33
2022-12-16T14:20:13.280Z,100.40
2022-12-16T14:23:54.538Z,100.13
2022-12-16T14:26:31.792Z,103.83
2022-12-16T14:29:17.195Z,107.97
2022-12-16T14:32:03.672Z,103.00
2022-12-16T14:34:52.672Z,100.43
2022-12-16T14:37:56.792Z,104.43
2022-12-16T14:40:44.669Z,113.07
2022-12-16T14:43:36.880Z,103.23
2022-12-16T14:46:22.897Z,128.80
2022-12-16T14:49:09.335Z,112.70
2022-12-16T14:52:04.729Z,116.27
2022-12-16T14:54:58.170Z,110.07
2022-12-16T14:57:45.950Z,121.03
2022-12-16T15:00:51.574Z,128.60
2022-12-16T15:03:53.068Z,133.77
2022-12-16T15:06:47.422Z,130.63
2022-12-16T15:09:47.350Z,115.63
2022-12-16T15:12:34.808Z,122.50
2022-12-16T15:15:24.645Z,122.23
2022-12-16T15:18:13.520Z,132.60
2022-12-16T15:21:16.469Z,115.90
2022-12-16T15:24:03.725Z,125.57
2022-12-16T15:26:51.182Z,128.47
2022-12-16T15:30:02.226Z,120.13
2022-12-16T15:32:49.544Z,129.73
2022-12-16T15:35:53.570Z,132.00
2022-12-16T15:38:49.140Z,125.87
2022-12-16T15:41:42.240Z,141.83
2022-12-16T15:44:53.515Z,134.67
2022-12-16T15:47:51.914Z,125.03
2022-12-16T15:50:47.580Z,115.80
2022-12-16T15:53:50.505Z,135.17
2022-12-16T15:56:38.057Z,126.87
2022-12-16T15:59:53.890Z,122.00
2022-12-16T16:02:48.600Z,133.10
2022-12-16T16:05:43.275Z,141.87
2022-12-16T16:08:29.680Z,127.20
2022-12-16T16:11:14.876Z,135.37
2022-12-16T16:14:05.976Z,151.30
2022-12-16T16:16:54.376Z,147.57
2022-12-16T16:19:42.312Z,150.53
2022-12-16T16:22:30.803Z,131.90
2022-12-16T16:25:16.142Z,139.17
2022-12-16T16:28:01.642Z,126.03
2022-12-16T16:30:47.092Z,132.20
2022-12-16T16:33:32.331Z,148.40
2022-12-16T16:36:17.701Z,138.40
2022-12-16T16:39:02.548Z,130.60
2022-12-16T16:41:47.256Z,126.90
2022-12-16T16:44:32.087Z,134.33
2022-12-16T16:47:17.363Z,163.13
2022-12-16T16:50:06.317Z,145.20
2022-12-16T16:52:51.673Z,146.13
2022-12-16T16:55:41.468Z,129.17
2022-12-16T16:58:32.352Z,147.10
2022-12-16T17:01:17.925Z,120.90
2022-12-16T17:04:03.151Z,186.17
2022-12-16T17:06:48.346Z,124.13
2022-12-16T17:09:33.044Z,144.73
2022-12-16T17:12:17.974Z,142.80
2022-12-16T17:15:02.846Z,141.27
2022-12-16T17:17:48.079Z,167.07
2022-12-16T17:20:34.915Z,139.90
2022-12-16T17:23:19.700Z,140.07
2022-12-16T17:26:04.625Z,171.33
2022-12-16T17:28:49.338Z,178.30
2022-12-16T17:31:34.286Z,200.50
2022-12-16T17:34:19.282Z,144.57
2022-12-16T17:37:04.155Z,133.97
2022-12-16T17:39:49.024Z,155.73
2022-12-16T17:42:33.753Z,155.17
2022-12-16T17:45:19.043Z,175.50
2022-12-16T17:48:03.797Z,186.20
2022-12-16T17:50:48.602Z,157.67
2022-12-16T17:53:33.729Z,203.33
2022-12-16T17:56:23.285Z,160.40
2022-12-16T17:59:10.929Z,174.97
2022-12-16T18:01:56.530Z,162.93
2022-12-16T18:04:41.765Z,138.77
2022-12-16T18:07:26.734Z,162.47
2022-12-16T18:10:11.513Z,150.97
2022-12-16T18:12:56.790Z,140.47
2022-12-16T18:15:41.553Z,148.40
2022-12-16T18:18:26.384Z,149.43
2022-12-16T18:21:11.228Z,152.07
2022-12-16T18:23:55.960Z,158.57
2022-12-16T18:26:40.800Z,160.37
2022-12-16T18:29:25.640Z,170.57
2022-12-16T18:32:10.472Z,156.37
2022-12-16T18:34:55.303Z,131.23
2022-12-16T18:37:40.140Z,141.57
2022-12-16T18:40:25.965Z,131.77
2022-12-16T18:43:10.664Z,129.07
2022-12-16T18:45:55.630Z,144.23
2022-12-16T18:48:40.379Z,129.20
2022-12-16T18:51:27.052Z,135.03
2022-12-16T18:54:11.812Z,125.57
2022-12-16T18:56:57.118Z,130.00
2022-12-16T18:59:56.407Z,131.90
2022-12-16T19:02:41.565Z,130.00
2022-12-16T19:05:26.637Z,131.40
2022-12-16T19:08:14.440Z,120.60
2022-12-16T19:10:59.528Z,113.67
2022-12-16T19:13:44.233Z,109.50
2022-12-16T19:16:29.273Z,108.80
2022-12-16T19:19:19.714Z,107.10
2022-12-16T19:22:05.576Z,102.53
2022-12-16T19:24:50.495Z,105.03
2022-12-16T19:27:35.784Z,118.00
2022-12-16T19:30:20.596Z,128.77
2022-12-16T19:33:08.625Z,101.53
2022-12-16T19:35:54.418Z,110.50
2022-12-16T19:38:41.729Z,132.23
2022-12-16T19:41:33.571Z,113.57
2022-12-16T19:44:18.722Z,93.17
2022-12-16T19:47:03.565Z,109.33
2022-12-16T19:49:48.369Z,113.27
2022-12-16T19:52:33.207Z,118.23
2022-12-16T19:55:18.144Z,142.30
2022-12-16T19:58:05.995Z,111.13
2022-12-16T20:00:50.835Z,145.97
2022-12-16T20:03:37.861Z,146.37
2022-12-16T20:06:25.556Z,132.60
2022-12-16T20:09:14.795Z,130.53
2022-12-16T20:12:01.139Z,111.60
2022-12-16T20:14:47.010Z,122.40
2022-12-16T20:17:32.823Z,127.17
2022-12-16T20:20:18.230Z,110.67
2022-12-16T20:23:03.587Z,119.20
2022-12-16T20:25:48.428Z,131.57
2022-12-16T20:28:33.369Z,131.00
2022-12-16T20:31:20.613Z,137.03
2022-12-16T20:34:10.921Z,124.63
2022-12-16T20:36:56.374Z,114.83
2022-12-16T20:39:48.015Z,120.60
2022-12-16T20:42:36.276Z,123.87
2022-12-16T20:45:20.926Z,139.00
2022-12-16T20:48:05.804Z,125.30
2022-12-16T20:50:50.629Z,115.67
2022-12-16T20:53:36.908Z,132.63
2022-12-16T20:56:22.380Z,107.77
2022-12-16T20:59:07.597Z,138.83
2022-12-16T21:02:21.675Z,113.60
2022-12-16T21:04:57.714Z,118.63
2022-12-16T21:07:43.013Z,135.20
2022-12-16T21:10:28.374Z,115.40
2022-12-16T21:13:13.548Z,117.17
2022-12-16T21:15:58.409Z,115.50
2022-12-16T21:18:43.757Z,102.07
2022-12-16T21:21:28.592Z,126.07
2022-12-16T21:24:24.797Z,114.90
2022-12-16T21:27:09.677Z,125.63
2022-12-16T21:29:54.582Z,103.67
2022-12-16T21:32:44.498Z,120.87
2022-12-16T21:35:29.502Z,127.70
2022-12-16T21:38:14.847Z,106.30
2022-12-16T21:40:59.728Z,142.57
2022-12-16T21:43:44.552Z,115.60
2022-12-16T21:46:30.033Z,130.97
2022-12-16T21:49:14.921Z,111.03
2022-12-16T21:51:59.790Z,99.27
2022-12-16T21:54:45.120Z,105.83
2022-12-16T21:57:29.947Z,104.03
2022-12-16T22:00:14.895Z,107.43
2022-12-16T22:03:00.127Z,87.73
2022-12-16T22:05:44.969Z,93.47
2022-12-16T22:08:30.294Z,94.77
2022-12-16T22:11:15.226Z,105.43
2022-12-16T22:14:00.043Z,84.23
2022-12-16T22:16:44.894Z,91.90
2022-12-16T22:19:29.876Z,88.77
2022-12-16T22:22:14.670Z,81.20
2022-12-16T22:24:59.450Z,78.97
2022-12-16T22:27:44.270Z,88.60
2022-12-16T22:30:29.600Z,91.80
2022-12-16T22:33:14.506Z,88.10
2022-12-16T22:35:59.229Z,75.27
2022-12-16T22:38:44.289Z,92.13
2022-12-16T22:41:29.316Z,113.93
2022-12-16T22:44:14.257Z,86.57
2022-12-16T22:46:59.079Z,84.50
2022-12-16T22:49:43.942Z,84.20
2022-12-16T22:52:28.858Z,73.17
2022-12-16T22:55:13.996Z,88.23
2022-12-16T22:57:58.708Z,75.63
2022-12-16T23:00:43.553Z,89.43
2022-12-16T23:03:36.750Z,86.43
2022-12-16T23:06:29.534Z,102.50
2022-12-16T23:09:15.144Z,98.40
2022-12-16T23:12:05.437Z,94.40
2022-12-16T23:14:50.227Z,92.00
2022-12-16T23:17:35.190Z,83.67
2022-12-16T23:20:20.085Z,89.50
2022-12-16T23:23:05.203Z,99.80
2022-12-16T23:25:50.016Z,102.90
2022-12-16T23:28:36.036Z,109.47
2022-12-16T23:31:21.310Z,116.10
2022-12-16T23:34:23.011Z,81.87
2022-12-16T23:37:08.224Z,90.97
2022-12-16T23:39:53.613Z,91.23
2022-12-16T23:42:41.414Z,99.13
2022-12-16T23:45:27.223Z,97.97
2022-12-16T23:48:24.203Z,96.57
2022-12-16T23:51:09.610Z,110.07
2022-12-16T23:53:54.815Z,107.70
2022-12-16T23:56:41.565Z,89.97
2022-12-16T23:59:26.730Z,100.03
